Time;durP1;ratioP1;P1;durP2;ratioP2;P2;SDS_P1;SDS_P2;PMS_P1;PMS_P2;Temp;Humidity;BMP_temperature;BMP_pressure;BME280_temperature;BME280_humidity;BME280_pressure;Samples;Min_cycle;Max_cycle;Signal;HPM_P1;HPM_P2
2021/12/29 00:02:49;;;;;;;10.63;6.60;;;;;;;;;;10306373;28;20252;-79
2021/12/29 00:07:50;;;;;;;10.93;7.60;;;;;;;;;;10302487;28;20214;-79
2021/12/29 00:12:53;;;;;;;7.78;6.95;;;;;;;;;;10303161;28;20202;-79
2021/12/29 00:17:55;;;;;;;9.15;7.03;;;;;;;;;;10307499;28;20760;-78
2021/12/29 00:22:57;;;;;;;9.10;6.53;;;;;;;;;;10281468;28;20213;-78
2021/12/29 00:27:59;;;;;;;9.50;6.90;;;;;;;;;;10298960;28;20697;-79
2021/12/29 00:33:00;;;;;;;11.40;7.07;;;;;;;;;;10301014;28;20291;-78
2021/12/29 00:38:20;;;;;;;8.65;7.35;;;;;;;;;;10300520;28;20205;-79
2021/12/29 00:43:40;;;;;;;11.65;8.35;;;;;;;;;;10304014;28;20225;-80
2021/12/29 00:49:10;;;;;;;10.07;6.53;;;;;;;;;;10303654;28;20201;-79
2021/12/29 00:54:11;;;;;;;5.95;5.35;;;;;;;;;;10302335;28;20221;-79
2021/12/29 00:59:12;;;;;;;6.57;5.63;;;;;;;;;;10298890;28;20476;-79
2021/12/29 01:04:14;;;;;;;7.03;5.50;;;;;;;;;;10282222;28;20223;-79
2021/12/29 01:09:15;;;;;;;9.65;5.38;;;;;;;;;;10299017;28;21243;-78
2021/12/29 01:14:22;;;;;;;8.38;5.00;;;;;;;;;;10299282;28;20275;-78
2021/12/29 01:19:24;;;;;;;6.82;4.43;;;;;;;;;;10316454;28;20204;-79
2021/12/29 01:24:27;;;;;;;6.45;4.55;;;;;;;;;;10297777;28;20241;-78
2021/12/29 01:29:28;;;;;;;10.35;4.80;;;;;;;;;;10297027;28;20866;-78
2021/12/29 01:34:30;;;;;;;7.57;4.80;;;;;;;;;;10294275;28;20742;-78
2021/12/29 01:39:31;;;;;;;5.28;4.45;;;;;;;;;;10298041;28;20216;-78
2021/12/29 01:44:32;;;;;;;5.53;4.53;;;;;;;;;;10297809;28;20267;-79
2021/12/29 01:49:33;;;;;;;10.27;5.03;;;;;;;;;;10296373;28;20212;-78
2021/12/29 01:54:35;;;;;;;11.27;4.72;;;;;;;;;;10280706;28;20225;-78
2021/12/29 01:59:37;;;;;;;12.13;4.65;;;;;;;;;;10293996;28;20368;-78
2021/12/29 02:04:39;;;;;;;9.77;4.38;;;;;;;;;;10295736;28;20351;-78
2021/12/29 02:09:40;;;;;;;5.40;4.00;;;;;;;;;;10295536;28;20335;-78
2021/12/29 02:14:41;;;;;;;8.13;3.92;;;;;;;;;;10304319;28;20237;-78
2021/12/29 02:19:46;;;;;;;5.60;4.05;;;;;;;;;;10304319;28;20247;-78
2021/12/29 02:24:53;;;;;;;10.10;4.68;;;;;;;;;;10304829;28;20217;-78
2021/12/29 02:29:54;;;;;;;7.68;4.38;;;;;;;;;;10301071;28;20265;-78
2021/12/29 02:34:56;;;;;;;11.90;4.68;;;;;;;;;;10285818;28;20224;-78
2021/12/29 02:39:57;;;;;;;9.65;4.70;;;;;;;;;;10302295;28;20212;-78
2021/12/29 02:45:02;;;;;;;6.30;4.43;;;;;;;;;;10301710;28;20257;-78
2021/12/29 02:50:04;;;;;;;9.70;4.50;;;;;;;;;;10298769;28;20206;-79
2021/12/29 02:55:05;;;;;;;5.95;4.38;;;;;;;;;;10283853;28;20224;-78
2021/12/29 03:00:06;;;;;;;9.98;3.88;;;;;;;;;;10264259;28;20204;-78
2021/12/29 03:05:07;;;;;;;12.38;3.72;;;;;;;;;;10295697;28;20224;-78
2021/12/29 03:10:09;;;;;;;8.65;3.70;;;;;;;;;;10282925;28;20216;-78
2021/12/29 03:15:10;;;;;;;11.35;4.80;;;;;;;;;;10280707;28;20215;-78
2021/12/29 03:20:11;;;;;;;8.70;5.78;;;;;;;;;;10281685;28;20229;-78
2021/12/29 03:25:12;;;;;;;14.05;5.65;;;;;;;;;;10320171;28;20229;-78
2021/12/29 03:30:14;;;;;;;12.18;6.32;;;;;;;;;;10316707;28;20269;-78
2021/12/29 03:35:15;;;;;;;15.25;6.95;;;;;;;;;;10306117;28;20217;-78
2021/12/29 03:40:16;;;;;;;13.38;5.97;;;;;;;;;;10306103;28;20206;-78
2021/12/29 03:45:17;;;;;;;11.27;5.28;;;;;;;;;;10303841;28;20220;-78
2021/12/29 03:50:18;;;;;;;9.38;4.95;;;;;;;;;;10303295;28;20251;-78
2021/12/29 03:55:19;;;;;;;12.45;5.43;;;;;;;;;;10305453;28;20208;-78
2021/12/29 04:00:21;;;;;;;10.02;4.93;;;;;;;;;;10303751;28;20265;-78
2021/12/29 04:05:22;;;;;;;11.77;5.10;;;;;;;;;;10304789;28;20253;-78
2021/12/29 04:10:24;;;;;;;10.27;5.68;;;;;;;;;;10304547;28;20208;-78
2021/12/29 04:15:27;;;;;;;9.88;4.88;;;;;;;;;;10287427;28;20213;-78
2021/12/29 04:25:53;;;;;;;17.42;5.65;;;;;;;;;;10304439;28;21054;-78
2021/12/29 04:30:56;;;;;;;8.68;5.32;;;;;;;;;;10300147;28;20224;-78
2021/12/29 04:35:57;;;;;;;12.73;5.95;;;;;;;;;;10299754;28;20197;-78
2021/12/29 04:40:58;;;;;;;12.38;5.80;;;;;;;;;;10303627;28;20267;-78
2021/12/29 04:45:59;;;;;;;14.23;6.25;;;;;;;;;;10302805;28;20705;-78
2021/12/29 04:51:05;;;;;;;16.00;7.20;;;;;;;;;;10304935;28;20273;-78
2021/12/29 04:56:06;;;;;;;14.02;7.60;;;;;;;;;;10309236;28;20214;-78
2021/12/29 05:01:33;;;;;;;16.08;7.18;;;;;;;;;;10305713;28;20193;-78
2021/12/29 05:12:44;;;;;;;21.77;8.30;;;;;;;;;;10305741;28;20185;-78
2021/12/29 05:18:10;;;;;;;13.73;7.80;;;;;;;;;;10307117;28;20596;-78
2021/12/29 05:23:36;;;;;;;15.52;8.48;;;;;;;;;;10304433;28;20217;-78
2021/12/29 05:29:03;;;;;;;22.27;8.30;;;;;;;;;;10302271;28;20726;-78
2021/12/29 05:34:30;;;;;;;17.30;7.75;;;;;;;;;;10312731;28;20201;-78
2021/12/29 05:39:55;;;;;;;23.50;9.55;;;;;;;;;;10281024;28;20217;-79
2021/12/29 16:18:52;;;;;;;7.38;6.80;;;;;;;;;;10341939;28;20208;-79
2021/12/29 16:23:53;;;;;;;6.43;5.90;;;;;;;;;;10312466;28;20278;-79
2021/12/29 16:28:54;;;;;;;10.48;8.45;;;;;;;;;;10346064;28;20740;-79
2021/12/29 16:33:55;;;;;;;9.15;8.15;;;;;;;;;;10368049;28;20218;-79
2021/12/29 16:38:57;;;;;;;8.73;8.00;;;;;;;;;;10364566;28;20282;-79
2021/12/29 16:43:58;;;;;;;10.40;9.02;;;;;;;;;;10364919;28;20572;-79
2021/12/29 16:48:59;;;;;;;15.55;11.43;;;;;;;;;;10351225;28;20743;-81
2021/12/29 16:54:00;;;;;;;12.85;9.85;;;;;;;;;;10367903;28;20267;-79
2021/12/29 16:59:01;;;;;;;12.15;9.40;;;;;;;;;;10389051;28;20230;-79
2021/12/29 17:04:02;;;;;;;8.95;7.78;;;;;;;;;;10387223;28;20239;-79
2021/12/29 17:09:04;;;;;;;9.90;7.68;;;;;;;;;;10386562;28;20211;-79
2021/12/29 17:14:10;;;;;;;14.68;9.70;;;;;;;;;;10377111;28;20267;-79
2021/12/29 17:19:12;;;;;;;13.82;9.65;;;;;;;;;;10371707;28;20208;-79
2021/12/29 17:24:15;;;;;;;14.68;11.10;;;;;;;;;;10380399;28;20223;-79
2021/12/29 17:29:16;;;;;;;15.90;11.23;;;;;;;;;;10390597;28;20200;-79
2021/12/29 17:34:19;;;;;;;13.55;10.45;;;;;;;;;;10367523;28;20685;-79
2021/12/29 17:39:21;;;;;;;14.57;10.90;;;;;;;;;;10389753;28;20250;-79
2021/12/29 17:44:22;;;;;;;14.98;10.43;;;;;;;;;;10384586;28;20699;-80
2021/12/29 17:49:23;;;;;;;17.73;11.55;;;;;;;;;;10387706;28;20203;-79
2021/12/29 17:54:24;;;;;;;16.80;10.77;;;;;;;;;;10387044;28;20203;-79
2021/12/29 17:59:25;;;;;;;17.50;11.30;;;;;;;;;;10369891;28;20239;-79
2021/12/29 18:04:26;;;;;;;14.07;9.15;;;;;;;;;;10385227;28;20230;-79
2021/12/29 18:09:27;;;;;;;10.32;7.60;;;;;;;;;;10388084;28;20470;-79
2021/12/29 18:14:28;;;;;;;9.70;7.95;;;;;;;;;;10384114;28;20233;-79
2021/12/29 18:19:30;;;;;;;9.00;7.97;;;;;;;;;;10391543;28;20218;-79
2021/12/29 18:24:31;;;;;;;9.50;7.25;;;;;;;;;;10386693;28;20226;-79
2021/12/29 18:29:33;;;;;;;7.97;7.13;;;;;;;;;;10388909;28;20245;-79
2021/12/29 18:34:34;;;;;;;9.75;8.73;;;;;;;;;;10352136;28;20247;-79
2021/12/29 18:39:35;;;;;;;17.35;10.50;;;;;;;;;;10354045;28;20208;-80
2021/12/29 18:44:37;;;;;;;9.10;8.02;;;;;;;;;;10356144;28;20655;-79
2021/12/29 18:49:38;;;;;;;10.48;9.00;;;;;;;;;;10338389;28;20234;-80
2021/12/29 18:54:39;;;;;;;14.15;12.23;;;;;;;;;;10359044;28;20296;-79
2021/12/29 18:59:40;;;;;;;16.05;10.48;;;;;;;;;;10367975;28;20204;-79
2021/12/29 19:04:41;;;;;;;17.60;12.48;;;;;;;;;;10341155;28;20232;-79
2021/12/29 19:09:42;;;;;;;11.80;10.13;;;;;;;;;;10366017;28;20231;-78
2021/12/29 19:14:45;;;;;;;17.80;12.70;;;;;;;;;;10364018;28;20226;-80
2021/12/29 19:19:46;;;;;;;13.80;11.10;;;;;;;;;;10365561;28;20218;-80
2021/12/29 19:24:48;;;;;;;14.63;11.30;;;;;;;;;;10358632;28;20219;-80
2021/12/29 19:29:49;;;;;;;13.93;11.23;;;;;;;;;;10368235;28;20258;-80
2021/12/29 19:34:50;;;;;;;16.85;12.20;;;;;;;;;;10403102;28;20256;-81
2021/12/29 19:39:51;;;;;;;14.70;11.77;;;;;;;;;;10405273;28;20199;-80
2021/12/29 19:44:52;;;;;;;12.57;10.75;;;;;;;;;;10408859;28;20291;-80
2021/12/29 19:49:53;;;;;;;16.45;11.98;;;;;;;;;;10407960;28;20255;-80
2021/12/29 19:54:55;;;;;;;20.42;12.60;;;;;;;;;;10389952;28;20314;-80
2021/12/29 19:59:56;;;;;;;15.25;11.85;;;;;;;;;;10407592;28;20219;-80
2021/12/29 20:04:57;;;;;;;32.70;16.58;;;;;;;;;;10365997;28;20232;-80
2021/12/29 20:09:58;;;;;;;122.03;17.42;;;;;;;;;;10365333;28;20212;-80
2021/12/29 20:14:59;;;;;;;40.63;16.17;;;;;;;;;;10364720;28;20208;-79
2021/12/29 20:20:01;;;;;;;39.63;18.10;;;;;;;;;;10367445;28;20244;-80
2021/12/29 20:25:03;;;;;;;19.90;14.63;;;;;;;;;;10360646;28;20243;-81
2021/12/29 20:30:06;;;;;;;31.42;20.45;;;;;;;;;;10346256;28;20224;-81
2021/12/29 20:35:08;;;;;;;16.70;14.10;;;;;;;;;;10369179;28;20654;-81
2021/12/29 20:40:11;;;;;;;1999.90;999.90;;;;;;;;;;10388268;28;20553;-81
2021/12/29 20:45:13;;;;;;;15.07;11.45;;;;;;;;;;10387615;28;20233;-81
2021/12/29 20:50:14;;;;;;;12.70;11.43;;;;;;;;;;10387863;28;20258;-82
2021/12/29 20:55:16;;;;;;;12.90;10.27;;;;;;;;;;10385297;28;20291;-81
2021/12/29 21:00:17;;;;;;;13.38;11.25;;;;;;;;;;10383613;28;20207;-81
2021/12/29 21:05:19;;;;;;;17.77;13.48;;;;;;;;;;10339934;28;20224;-80
2021/12/29 21:10:25;;;;;;;11.88;9.80;;;;;;;;;;10336807;28;20204;-79
2021/12/29 21:15:27;;;;;;;10.80;9.70;;;;;;;;;;10342422;28;20212;-80
2021/12/29 21:20:28;;;;;;;10.90;9.80;;;;;;;;;;10340279;28;20197;-81
2021/12/29 21:25:31;;;;;;;12.70;10.98;;;;;;;;;;10335338;28;20270;-80
2021/12/29 21:30:33;;;;;;;15.48;11.98;;;;;;;;;;10340129;28;20220;-80
2021/12/29 21:35:34;;;;;;;14.98;11.85;;;;;;;;;;10335949;28;20204;-80
2021/12/29 21:40:35;;;;;;;21.75;15.23;;;;;;;;;;10357099;28;20211;-79
2021/12/29 21:45:37;;;;;;;21.52;15.32;;;;;;;;;;10345433;28;21107;-80
2021/12/29 21:50:39;;;;;;;19.83;13.90;;;;;;;;;;10336800;28;20215;-79
2021/12/29 21:55:41;;;;;;;14.25;12.23;;;;;;;;;;10334007;28;20200;-80
2021/12/29 22:00:42;;;;;;;17.23;12.68;;;;;;;;;;10353451;28;20262;-80
2021/12/29 22:05:44;;;;;;;18.15;12.70;;;;;;;;;;10336927;28;20224;-80
2021/12/29 22:10:47;;;;;;;19.65;13.88;;;;;;;;;;10341287;28;20207;-79
2021/12/29 22:15:50;;;;;;;19.73;12.65;;;;;;;;;;10342620;28;20201;-80
2021/12/29 22:20:51;;;;;;;19.52;12.98;;;;;;;;;;10352152;28;20219;-80
2021/12/29 22:25:53;;;;;;;19.48;13.55;;;;;;;;;;10344340;28;20216;-80
2021/12/29 22:30:56;;;;;;;19.83;14.13;;;;;;;;;;10345666;28;20216;-81
2021/12/29 22:35:57;;;;;;;19.15;13.65;;;;;;;;;;10351652;28;20248;-81
2021/12/29 22:40:59;;;;;;;21.20;14.00;;;;;;;;;;10351302;28;20220;-81
2021/12/29 22:46:00;;;;;;;19.15;14.27;;;;;;;;;;10365925;28;24494;-81
2021/12/29 22:51:02;;;;;;;19.08;12.55;;;;;;;;;;10345822;28;20197;-81
2021/12/29 22:56:05;;;;;;;22.65;13.55;;;;;;;;;;10348955;28;20220;-80
2021/12/29 23:01:09;;;;;;;17.25;12.93;;;;;;;;;;10347050;28;20231;-81
2021/12/29 23:06:11;;;;;;;20.15;13.93;;;;;;;;;;10335536;28;20224;-81
2021/12/29 23:11:13;;;;;;;22.52;13.75;;;;;;;;;;10344569;28;20196;-80
2021/12/29 23:16:15;;;;;;;19.77;13.80;;;;;;;;;;10336659;28;20828;-81
2021/12/29 23:21:17;;;;;;;22.77;14.00;;;;;;;;;;10345614;28;20224;-81
2021/12/29 23:31:32;;;;;;;26.30;13.85;;;;;;;;;;10347231;28;20331;-80
2021/12/29 23:36:34;;;;;;;23.42;14.20;;;;;;;;;;10349448;28;20292;-80
2021/12/29 23:41:36;;;;;;;23.85;15.02;;;;;;;;;;10361900;28;20201;-81
2021/12/29 23:46:37;;;;;;;26.02;16.60;;;;;;;;;;10344142;28;20220;-80
2021/12/29 23:51:38;;;;;;;27.42;15.93;;;;;;;;;;10338411;28;20193;-80
2021/12/29 23:56:39;;;;;;;26.15;15.88;;;;;;;;;;10343679;28;20204;-80
